sensor_id;sensor_type;location;lat;lon;timestamp;P1;durP1;ratioP1;P2;durP2;ratioP2
25319;SDS011;13256;49.012;8.610;2022-10-30T00:01:51;6.80;;;3.88;;
25319;SDS011;13256;49.012;8.610;2022-10-30T00:06:54;7.10;;;3.53;;
25319;SDS011;13256;49.012;8.610;2022-10-30T00:09:21;10.70;;;4.10;;
25319;SDS011;13256;49.012;8.610;2022-10-30T00:11:47;10.02;;;3.53;;
25319;SDS011;13256;49.012;8.610;2022-10-30T00:14:14;9.40;;;3.78;;
25319;SDS011;13256;49.012;8.610;2022-10-30T00:16:41;9.27;;;3.53;;
25319;SDS011;13256;49.012;8.610;2022-10-30T00:19:08;5.93;;;3.90;;
25319;SDS011;13256;49.012;8.610;2022-10-30T00:21:34;5.55;;;3.15;;
25319;SDS011;13256;49.012;8.610;2022-10-30T00:24:03;7.53;;;3.63;;
25319;SDS011;13256;49.012;8.610;2022-10-30T00:26:32;9.40;;;3.10;;
25319;SDS011;13256;49.012;8.610;2022-10-30T00:29:01;7.18;;;3.25;;
25319;SDS011;13256;49.012;8.610;2022-10-30T00:31:28;9.20;;;3.45;;
25319;SDS011;13256;49.012;8.610;2022-10-30T00:33:57;8.57;;;3.42;;
25319;SDS011;13256;49.012;8.610;2022-10-30T00:36:23;8.50;;;3.65;;
25319;SDS011;13256;49.012;8.610;2022-10-30T00:38:52;10.43;;;3.50;;
25319;SDS011;13256;49.012;8.610;2022-10-30T00:41:22;7.75;;;3.92;;
25319;SDS011;13256;49.012;8.610;2022-10-30T00:46:23;7.15;;;3.05;;
25319;SDS011;13256;49.012;8.610;2022-10-30T00:49:14;6.57;;;3.50;;
25319;SDS011;13256;49.012;8.610;2022-10-30T00:51:44;5.68;;;3.60;;
25319;SDS011;13256;49.012;8.610;2022-10-30T00:54:17;7.90;;;3.30;;
25319;SDS011;13256;49.012;8.610;2022-10-30T00:59:44;7.70;;;3.22;;
25319;SDS011;13256;49.012;8.610;2022-10-30T01:02:18;5.75;;;3.15;;
25319;SDS011;13256;49.012;8.610;2022-10-30T01:04:46;9.73;;;3.45;;
25319;SDS011;13256;49.012;8.610;2022-10-30T01:07:19;8.15;;;3.45;;
25319;SDS011;13256;49.012;8.610;2022-10-30T01:09:50;7.55;;;3.45;;
25319;SDS011;13256;49.012;8.610;2022-10-30T01:12:24;10.57;;;3.95;;
25319;SDS011;13256;49.012;8.610;2022-10-30T01:14:54;8.05;;;3.50;;
25319;SDS011;13256;49.012;8.610;2022-10-30T01:26:06;6.35;;;3.67;;
25319;SDS011;13256;49.012;8.610;2022-10-30T01:31:30;12.10;;;4.07;;
25319;SDS011;13256;49.012;8.610;2022-10-30T01:37:02;6.78;;;3.58;;
25319;SDS011;13256;49.012;8.610;2022-10-30T01:39:38;10.95;;;3.80;;
25319;SDS011;13256;49.012;8.610;2022-10-30T01:42:09;6.10;;;3.40;;
25319;SDS011;13256;49.012;8.610;2022-10-30T01:44:56;9.13;;;4.15;;
25319;SDS011;13256;49.012;8.610;2022-10-30T01:50:28;9.98;;;3.88;;
25319;SDS011;13256;49.012;8.610;2022-10-30T01:53:11;5.18;;;3.47;;
25319;SDS011;13256;49.012;8.610;2022-10-30T01:58:42;8.93;;;3.55;;
25319;SDS011;13256;49.012;8.610;2022-10-30T02:01:14;7.85;;;3.67;;
25319;SDS011;13256;49.012;8.610;2022-10-30T02:03:41;8.15;;;3.60;;
25319;SDS011;13256;49.012;8.610;2022-10-30T02:06:09;9.50;;;3.95;;
25319;SDS011;13256;49.012;8.610;2022-10-30T02:08:36;7.57;;;3.38;;
25319;SDS011;13256;49.012;8.610;2022-10-30T02:11:05;8.00;;;3.40;;
25319;SDS011;13256;49.012;8.610;2022-10-30T02:13:39;5.88;;;3.35;;
25319;SDS011;13256;49.012;8.610;2022-10-30T02:16:10;5.95;;;3.45;;
25319;SDS011;13256;49.012;8.610;2022-10-30T02:24:26;7.20;;;3.60;;
25319;SDS011;13256;49.012;8.610;2022-10-30T02:26:54;6.50;;;3.55;;
25319;SDS011;13256;49.012;8.610;2022-10-30T02:29:21;6.13;;;3.55;;
25319;SDS011;13256;49.012;8.610;2022-10-30T02:31:48;7.45;;;3.80;;
25319;SDS011;13256;49.012;8.610;2022-10-30T02:34:17;11.20;;;4.00;;
25319;SDS011;13256;49.012;8.610;2022-10-30T02:36:46;9.95;;;2.90;;
25319;SDS011;13256;49.012;8.610;2022-10-30T02:39:13;5.90;;;3.58;;
25319;SDS011;13256;49.012;8.610;2022-10-30T02:41:40;4.95;;;3.30;;
25319;SDS011;13256;49.012;8.610;2022-10-30T02:44:10;5.90;;;3.47;;
25319;SDS011;13256;49.012;8.610;2022-10-30T02:46:38;6.18;;;3.90;;
25319;SDS011;13256;49.012;8.610;2022-10-30T02:49:08;10.95;;;4.05;;
25319;SDS011;13256;49.012;8.610;2022-10-30T02:51:35;13.32;;;3.65;;
25319;SDS011;13256;49.012;8.610;2022-10-30T02:54:01;9.73;;;3.50;;
25319;SDS011;13256;49.012;8.610;2022-10-30T02:56:29;13.75;;;3.92;;
25319;SDS011;13256;49.012;8.610;2022-10-30T02:58:59;11.98;;;3.60;;
25319;SDS011;13256;49.012;8.610;2022-10-30T03:01:27;7.80;;;3.65;;
25319;SDS011;13256;49.012;8.610;2022-10-30T03:03:57;6.63;;;3.47;;
25319;SDS011;13256;49.012;8.610;2022-10-30T03:06:24;5.47;;;3.65;;
25319;SDS011;13256;49.012;8.610;2022-10-30T03:08:57;10.15;;;3.35;;
25319;SDS011;13256;49.012;8.610;2022-10-30T03:11:28;10.95;;;3.33;;
25319;SDS011;13256;49.012;8.610;2022-10-30T03:13:56;6.28;;;3.53;;
25319;SDS011;13256;49.012;8.610;2022-10-30T03:16:24;5.40;;;3.40;;
25319;SDS011;13256;49.012;8.610;2022-10-30T03:18:57;5.97;;;3.05;;
25319;SDS011;13256;49.012;8.610;2022-10-30T03:21:27;5.55;;;3.20;;
25319;SDS011;13256;49.012;8.610;2022-10-30T03:23:56;6.80;;;3.17;;
25319;SDS011;13256;49.012;8.610;2022-10-30T03:26:22;10.85;;;3.65;;
25319;SDS011;13256;49.012;8.610;2022-10-30T03:28:59;8.07;;;3.63;;
25319;SDS011;13256;49.012;8.610;2022-10-30T03:31:26;4.45;;;2.92;;
25319;SDS011;13256;49.012;8.610;2022-10-30T03:34:21;6.10;;;3.10;;
25319;SDS011;13256;49.012;8.610;2022-10-30T03:36:48;5.57;;;2.92;;
25319;SDS011;13256;49.012;8.610;2022-10-30T03:39:14;5.95;;;2.90;;
25319;SDS011;13256;49.012;8.610;2022-10-30T03:41:43;7.50;;;2.90;;
25319;SDS011;13256;49.012;8.610;2022-10-30T03:44:11;6.70;;;3.35;;
25319;SDS011;13256;49.012;8.610;2022-10-30T03:46:38;5.20;;;2.72;;
25319;SDS011;13256;49.012;8.610;2022-10-30T03:49:16;9.80;;;3.22;;
25319;SDS011;13256;49.012;8.610;2022-10-30T03:51:46;9.10;;;3.03;;
25319;SDS011;13256;49.012;8.610;2022-10-30T03:54:15;9.35;;;3.03;;
25319;SDS011;13256;49.012;8.610;2022-10-30T03:56:43;10.20;;;3.25;;
25319;SDS011;13256;49.012;8.610;2022-10-30T03:59:13;6.60;;;3.30;;
25319;SDS011;13256;49.012;8.610;2022-10-30T04:01:50;7.53;;;3.38;;
25319;SDS011;13256;49.012;8.610;2022-10-30T04:04:21;7.10;;;2.85;;
25319;SDS011;13256;49.012;8.610;2022-10-30T04:06:49;12.85;;;3.20;;
25319;SDS011;13256;49.012;8.610;2022-10-30T04:09:15;5.40;;;2.88;;
25319;SDS011;13256;49.012;8.610;2022-10-30T04:11:42;9.00;;;3.50;;
25319;SDS011;13256;49.012;8.610;2022-10-30T04:14:09;7.80;;;3.10;;
25319;SDS011;13256;49.012;8.610;2022-10-30T04:19:38;8.13;;;3.50;;
25319;SDS011;13256;49.012;8.610;2022-10-30T04:22:06;8.77;;;3.53;;
25319;SDS011;13256;49.012;8.610;2022-10-30T04:24:34;10.13;;;3.30;;
25319;SDS011;13256;49.012;8.610;2022-10-30T04:27:07;7.68;;;2.70;;
25319;SDS011;13256;49.012;8.610;2022-10-30T04:29:34;6.63;;;2.45;;
25319;SDS011;13256;49.012;8.610;2022-10-30T04:32:03;6.25;;;2.75;;
25319;SDS011;13256;49.012;8.610;2022-10-30T04:34:33;7.32;;;3.20;;
25319;SDS011;13256;49.012;8.610;2022-10-30T04:37:00;4.30;;;2.63;;
25319;SDS011;13256;49.012;8.610;2022-10-30T04:39:28;4.78;;;2.83;;
25319;SDS011;13256;49.012;8.610;2022-10-30T04:42:07;6.35;;;2.88;;
25319;SDS011;13256;49.012;8.610;2022-10-30T04:44:34;8.18;;;3.00;;
25319;SDS011;13256;49.012;8.610;2022-10-30T04:47:01;9.18;;;2.67;;
25319;SDS011;13256;49.012;8.610;2022-10-30T04:49:30;10.05;;;2.95;;
25319;SDS011;13256;49.012;8.610;2022-10-30T04:52:00;9.27;;;3.75;;
25319;SDS011;13256;49.012;8.610;2022-10-30T04:54:29;5.93;;;2.97;;
25319;SDS011;13256;49.012;8.610;2022-10-30T04:56:55;7.15;;;3.10;;
25319;SDS011;13256;49.012;8.610;2022-10-30T04:59:22;5.60;;;2.95;;
25319;SDS011;13256;49.012;8.610;2022-10-30T05:01:54;4.75;;;2.63;;
25319;SDS011;13256;49.012;8.610;2022-10-30T05:04:20;8.60;;;2.75;;
25319;SDS011;13256;49.012;8.610;2022-10-30T05:06:47;6.57;;;2.83;;
25319;SDS011;13256;49.012;8.610;2022-10-30T05:09:15;13.98;;;3.58;;
25319;SDS011;13256;49.012;8.610;2022-10-30T05:11:42;8.63;;;2.95;;
25319;SDS011;13256;49.012;8.610;2022-10-30T05:14:10;9.07;;;2.47;;
25319;SDS011;13256;49.012;8.610;2022-10-30T05:16:39;6.05;;;2.88;;
25319;SDS011;13256;49.012;8.610;2022-10-30T05:19:09;6.57;;;3.47;;
25319;SDS011;13256;49.012;8.610;2022-10-30T05:21:39;9.55;;;2.65;;
25319;SDS011;13256;49.012;8.610;2022-10-30T05:24:08;8.15;;;2.95;;
25319;SDS011;13256;49.012;8.610;2022-10-30T05:26:42;7.25;;;2.80;;
25319;SDS011;13256;49.012;8.610;2022-10-30T05:29:11;4.97;;;2.88;;
25319;SDS011;13256;49.012;8.610;2022-10-30T05:31:41;7.70;;;3.08;;
25319;SDS011;13256;49.012;8.610;2022-10-30T05:34:16;8.48;;;2.85;;
25319;SDS011;13256;49.012;8.610;2022-10-30T05:37:10;11.27;;;3.55;;
25319;SDS011;13256;49.012;8.610;2022-10-30T05:39:36;8.95;;;3.13;;
25319;SDS011;13256;49.012;8.610;2022-10-30T05:42:09;9.52;;;2.80;;
25319;SDS011;13256;49.012;8.610;2022-10-30T05:44:45;6.53;;;3.22;;
25319;SDS011;13256;49.012;8.610;2022-10-30T05:47:32;6.05;;;2.72;;
25319;SDS011;13256;49.012;8.610;2022-10-30T05:50:00;4.10;;;2.85;;
25319;SDS011;13256;49.012;8.610;2022-10-30T05:52:29;6.40;;;2.97;;
25319;SDS011;13256;49.012;8.610;2022-10-30T05:54:59;7.15;;;2.72;;
25319;SDS011;13256;49.012;8.610;2022-10-30T05:57:40;11.02;;;3.55;;
25319;SDS011;13256;49.012;8.610;2022-10-30T06:00:08;5.68;;;3.10;;
25319;SDS011;13256;49.012;8.610;2022-10-30T06:02:41;7.97;;;3.03;;
25319;SDS011;13256;49.012;8.610;2022-10-30T06:05:08;6.72;;;3.22;;
25319;SDS011;13256;49.012;8.610;2022-10-30T06:07:36;5.72;;;2.75;;
25319;SDS011;13256;49.012;8.610;2022-10-30T06:10:05;6.03;;;2.72;;
25319;SDS011;13256;49.012;8.610;2022-10-30T06:12:42;7.45;;;2.72;;
25319;SDS011;13256;49.012;8.610;2022-10-30T06:18:18;4.60;;;2.50;;
25319;SDS011;13256;49.012;8.610;2022-10-30T06:20:48;4.65;;;2.40;;
25319;SDS011;13256;49.012;8.610;2022-10-30T06:23:43;5.85;;;2.58;;
25319;SDS011;13256;49.012;8.610;2022-10-30T06:26:26;9.23;;;4.78;;
25319;SDS011;13256;49.012;8.610;2022-10-30T06:29:01;8.07;;;6.30;;
25319;SDS011;13256;49.012;8.610;2022-10-30T06:31:29;8.50;;;5.10;;
25319;SDS011;13256;49.012;8.610;2022-10-30T06:34:01;10.10;;;5.95;;
25319;SDS011;13256;49.012;8.610;2022-10-30T06:36:33;43.33;;;17.92;;
25319;SDS011;13256;49.012;8.610;2022-10-30T06:39:03;132.30;;;43.70;;
25319;SDS011;13256;49.012;8.610;2022-10-30T06:41:40;126.45;;;40.35;;
25319;SDS011;13256;49.012;8.610;2022-10-30T06:44:19;79.45;;;24.00;;
25319;SDS011;13256;49.012;8.610;2022-10-30T06:46:51;24.02;;;9.52;;
25319;SDS011;13256;49.012;8.610;2022-10-30T06:49:18;20.10;;;7.32;;
25319;SDS011;13256;49.012;8.610;2022-10-30T06:51:45;18.58;;;6.22;;
25319;SDS011;13256;49.012;8.610;2022-10-30T06:54:19;17.50;;;7.25;;
25319;SDS011;13256;49.012;8.610;2022-10-30T06:57:06;23.60;;;7.80;;
25319;SDS011;13256;49.012;8.610;2022-10-30T06:59:37;18.50;;;8.40;;
25319;SDS011;13256;49.012;8.610;2022-10-30T07:02:27;22.17;;;7.25;;
25319;SDS011;13256;49.012;8.610;2022-10-30T07:04:59;15.43;;;5.47;;
25319;SDS011;13256;49.012;8.610;2022-10-30T07:07:28;11.27;;;4.50;;
25319;SDS011;13256;49.012;8.610;2022-10-30T07:09:58;9.77;;;3.78;;
25319;SDS011;13256;49.012;8.610;2022-10-30T07:12:52;14.70;;;4.07;;
25319;SDS011;13256;49.012;8.610;2022-10-30T07:15:37;9.65;;;3.63;;
25319;SDS011;13256;49.012;8.610;2022-10-30T07:18:18;11.30;;;3.80;;
25319;SDS011;13256;49.012;8.610;2022-10-30T07:20:46;5.28;;;3.20;;
25319;SDS011;13256;49.012;8.610;2022-10-30T07:23:13;6.05;;;3.60;;
25319;SDS011;13256;49.012;8.610;2022-10-30T07:25:40;15.38;;;3.67;;
25319;SDS011;13256;49.012;8.610;2022-10-30T07:28:22;8.07;;;4.13;;
25319;SDS011;13256;49.012;8.610;2022-10-30T07:31:13;13.10;;;3.70;;
25319;SDS011;13256;49.012;8.610;2022-10-30T07:34:30;5.90;;;3.50;;
25319;SDS011;13256;49.012;8.610;2022-10-30T07:37:16;8.95;;;4.40;;
25319;SDS011;13256;49.012;8.610;2022-10-30T07:39:58;9.38;;;4.65;;
25319;SDS011;13256;49.012;8.610;2022-10-30T07:42:42;6.93;;;3.55;;
25319;SDS011;13256;49.012;8.610;2022-10-30T07:45:28;17.40;;;6.25;;
25319;SDS011;13256;49.012;8.610;2022-10-30T07:48:14;21.27;;;8.30;;
25319;SDS011;13256;49.012;8.610;2022-10-30T07:51:04;16.80;;;7.43;;
25319;SDS011;13256;49.012;8.610;2022-10-30T07:53:41;11.63;;;5.95;;
25319;SDS011;13256;49.012;8.610;2022-10-30T07:56:09;25.85;;;11.05;;
25319;SDS011;13256;49.012;8.610;2022-10-30T07:59:07;10.05;;;5.45;;
25319;SDS011;13256;49.012;8.610;2022-10-30T08:01:54;21.23;;;8.95;;
25319;SDS011;13256;49.012;8.610;2022-10-30T08:04:34;30.23;;;11.18;;
25319;SDS011;13256;49.012;8.610;2022-10-30T08:07:14;38.05;;;12.90;;
25319;SDS011;13256;49.012;8.610;2022-10-30T08:09:41;42.28;;;13.88;;
25319;SDS011;13256;49.012;8.610;2022-10-30T08:12:15;47.35;;;13.05;;
25319;SDS011;13256;49.012;8.610;2022-10-30T08:14:42;30.27;;;10.95;;
25319;SDS011;13256;49.012;8.610;2022-10-30T08:17:09;15.38;;;7.10;;
25319;SDS011;13256;49.012;8.610;2022-10-30T08:19:37;22.05;;;10.20;;
25319;SDS011;13256;49.012;8.610;2022-10-30T08:25:05;20.13;;;8.52;;
25319;SDS011;13256;49.012;8.610;2022-10-30T08:27:32;11.77;;;5.70;;
25319;SDS011;13256;49.012;8.610;2022-10-30T08:29:59;8.43;;;4.18;;
25319;SDS011;13256;49.012;8.610;2022-10-30T08:32:26;9.00;;;4.10;;
25319;SDS011;13256;49.012;8.610;2022-10-30T08:35:13;3.00;;;2.25;;
25319;SDS011;13256;49.012;8.610;2022-10-30T08:37:45;6.32;;;2.63;;
25319;SDS011;13256;49.012;8.610;2022-10-30T08:40:13;8.15;;;2.92;;
25319;SDS011;13256;49.012;8.610;2022-10-30T08:42:51;5.82;;;2.67;;
25319;SDS011;13256;49.012;8.610;2022-10-30T08:45:19;8.48;;;3.90;;
25319;SDS011;13256;49.012;8.610;2022-10-30T08:48:06;9.95;;;3.50;;
25319;SDS011;13256;49.012;8.610;2022-10-30T08:50:40;10.50;;;4.25;;
25319;SDS011;13256;49.012;8.610;2022-10-30T08:53:14;7.65;;;3.50;;
25319;SDS011;13256;49.012;8.610;2022-10-30T08:55:47;8.40;;;3.20;;
25319;SDS011;13256;49.012;8.610;2022-10-30T08:58:30;11.73;;;3.08;;
25319;SDS011;13256;49.012;8.610;2022-10-30T09:00:57;12.48;;;3.55;;
25319;SDS011;13256;49.012;8.610;2022-10-30T09:03:45;9.45;;;3.63;;
25319;SDS011;13256;49.012;8.610;2022-10-30T09:06:43;15.02;;;4.05;;
25319;SDS011;13256;49.012;8.610;2022-10-30T09:09:42;16.40;;;4.80;;
25319;SDS011;13256;49.012;8.610;2022-10-30T09:12:11;9.57;;;4.60;;
25319;SDS011;13256;49.012;8.610;2022-10-30T09:14:45;10.93;;;4.25;;
25319;SDS011;13256;49.012;8.610;2022-10-30T09:17:11;18.52;;;4.30;;
25319;SDS011;13256;49.012;8.610;2022-10-30T09:19:42;14.23;;;4.25;;
25319;SDS011;13256;49.012;8.610;2022-10-30T09:22:15;10.05;;;4.10;;
25319;SDS011;13256;49.012;8.610;2022-10-30T09:24:42;9.05;;;3.28;;
25319;SDS011;13256;49.012;8.610;2022-10-30T09:27:30;10.45;;;3.75;;
25319;SDS011;13256;49.012;8.610;2022-10-30T09:30:03;6.85;;;3.00;;
25319;SDS011;13256;49.012;8.610;2022-10-30T09:32:34;12.38;;;3.90;;
25319;SDS011;13256;49.012;8.610;2022-10-30T09:35:10;9.82;;;3.95;;
25319;SDS011;13256;49.012;8.610;2022-10-30T09:37:44;14.77;;;3.25;;
25319;SDS011;13256;49.012;8.610;2022-10-30T09:40:26;10.73;;;2.97;;
25319;SDS011;13256;49.012;8.610;2022-10-30T10:00:18;8.02;;;3.15;;
25319;SDS011;13256;49.012;8.610;2022-10-30T10:08:45;9.27;;;3.55;;
25319;SDS011;13256;49.012;8.610;2022-10-30T10:11:41;9.88;;;3.70;;
25319;SDS011;13256;49.012;8.610;2022-10-30T10:14:16;8.55;;;3.22;;
25319;SDS011;13256;49.012;8.610;2022-10-30T10:16:51;9.60;;;3.47;;
25319;SDS011;13256;49.012;8.610;2022-10-30T10:22:24;8.77;;;2.50;;
25319;SDS011;13256;49.012;8.610;2022-10-30T10:24:58;7.80;;;3.05;;
25319;SDS011;13256;49.012;8.610;2022-10-30T10:27:37;10.52;;;2.85;;
25319;SDS011;13256;49.012;8.610;2022-10-30T10:30:25;7.57;;;2.97;;
25319;SDS011;13256;49.012;8.610;2022-10-30T10:55:32;7.57;;;3.20;;
25319;SDS011;13256;49.012;8.610;2022-10-30T10:58:11;8.15;;;3.20;;
25319;SDS011;13256;49.012;8.610;2022-10-30T11:00:43;10.25;;;3.30;;
25319;SDS011;13256;49.012;8.610;2022-10-30T11:03:16;8.13;;;3.00;;
25319;SDS011;13256;49.012;8.610;2022-10-30T11:05:51;9.88;;;2.78;;
25319;SDS011;13256;49.012;8.610;2022-10-30T11:08:33;10.40;;;3.08;;
25319;SDS011;13256;49.012;8.610;2022-10-30T11:11:03;9.15;;;2.88;;
25319;SDS011;13256;49.012;8.610;2022-10-30T11:13:35;9.05;;;3.30;;
25319;SDS011;13256;49.012;8.610;2022-10-30T11:16:32;10.35;;;2.78;;
25319;SDS011;13256;49.012;8.610;2022-10-30T11:19:09;6.00;;;2.45;;
25319;SDS011;13256;49.012;8.610;2022-10-30T11:21:41;6.70;;;2.53;;
25319;SDS011;13256;49.012;8.610;2022-10-30T11:24:31;5.97;;;2.75;;
25319;SDS011;13256;49.012;8.610;2022-10-30T11:27:16;10.35;;;2.78;;
25319;SDS011;13256;49.012;8.610;2022-10-30T11:29:52;13.35;;;3.08;;
25319;SDS011;13256;49.012;8.610;2022-10-30T11:32:31;6.32;;;2.80;;
25319;SDS011;13256;49.012;8.610;2022-10-30T11:35:20;5.45;;;2.08;;
25319;SDS011;13256;49.012;8.610;2022-10-30T11:37:49;4.45;;;2.25;;
25319;SDS011;13256;49.012;8.610;2022-10-30T11:40:21;8.73;;;2.72;;
25319;SDS011;13256;49.012;8.610;2022-10-30T11:43:01;9.98;;;2.90;;
25319;SDS011;13256;49.012;8.610;2022-10-30T11:45:33;4.97;;;2.25;;
25319;SDS011;13256;49.012;8.610;2022-10-30T11:48:25;6.40;;;2.90;;
25319;SDS011;13256;49.012;8.610;2022-10-30T11:50:55;7.30;;;2.00;;
25319;SDS011;13256;49.012;8.610;2022-10-30T11:53:58;5.72;;;2.33;;
25319;SDS011;13256;49.012;8.610;2022-10-30T11:56:18;5.00;;;2.28;;
25319;SDS011;13256;49.012;8.610;2022-10-30T11:58:50;4.65;;;2.85;;
25319;SDS011;13256;49.012;8.610;2022-10-30T12:01:37;8.05;;;3.30;;
25319;SDS011;13256;49.012;8.610;2022-10-30T12:04:12;8.10;;;2.40;;
25319;SDS011;13256;49.012;8.610;2022-10-30T12:09:54;5.10;;;2.40;;
25319;SDS011;13256;49.012;8.610;2022-10-30T12:12:26;6.07;;;2.55;;
25319;SDS011;13256;49.012;8.610;2022-10-30T12:15:08;8.27;;;2.58;;
25319;SDS011;13256;49.012;8.610;2022-10-30T12:17:39;5.13;;;2.60;;
25319;SDS011;13256;49.012;8.610;2022-10-30T12:20:19;6.40;;;2.40;;
25319;SDS011;13256;49.012;8.610;2022-10-30T12:22:53;9.85;;;3.00;;
25319;SDS011;13256;49.012;8.610;2022-10-30T12:25:27;11.18;;;4.00;;
25319;SDS011;13256;49.012;8.610;2022-10-30T12:28:03;6.07;;;2.50;;
25319;SDS011;13256;49.012;8.610;2022-10-30T12:30:40;7.18;;;2.60;;
25319;SDS011;13256;49.012;8.610;2022-10-30T12:33:16;5.07;;;2.53;;
25319;SDS011;13256;49.012;8.610;2022-10-30T12:38:31;9.35;;;2.30;;
25319;SDS011;13256;49.012;8.610;2022-10-30T12:44:02;8.38;;;2.45;;
25319;SDS011;13256;49.012;8.610;2022-10-30T12:46:35;8.00;;;2.78;;
25319;SDS011;13256;49.012;8.610;2022-10-30T12:49:18;9.60;;;2.70;;
25319;SDS011;13256;49.012;8.610;2022-10-30T12:52:02;8.38;;;2.70;;
25319;SDS011;13256;49.012;8.610;2022-10-30T12:54:32;7.95;;;2.53;;
25319;SDS011;13256;49.012;8.610;2022-10-30T12:57:06;6.93;;;2.55;;
25319;SDS011;13256;49.012;8.610;2022-10-30T12:59:56;6.22;;;2.28;;
25319;SDS011;13256;49.012;8.610;2022-10-30T13:02:35;8.45;;;2.45;;
25319;SDS011;13256;49.012;8.610;2022-10-30T13:13:54;5.38;;;2.08;;
25319;SDS011;13256;49.012;8.610;2022-10-30T13:16:52;5.28;;;2.30;;
25319;SDS011;13256;49.012;8.610;2022-10-30T13:19:20;5.50;;;2.45;;
25319;SDS011;13256;49.012;8.610;2022-10-30T13:21:59;6.97;;;2.38;;
25319;SDS011;13256;49.012;8.610;2022-10-30T13:24:38;5.90;;;2.30;;
25319;SDS011;13256;49.012;8.610;2022-10-30T13:27:40;8.10;;;2.47;;
25319;SDS011;13256;49.012;8.610;2022-10-30T13:30:45;8.73;;;3.05;;
25319;SDS011;13256;49.012;8.610;2022-10-30T13:48:49;10.27;;;2.38;;
25319;SDS011;13256;49.012;8.610;2022-10-30T13:53:59;10.50;;;3.03;;
25319;SDS011;13256;49.012;8.610;2022-10-30T13:56:46;9.27;;;2.53;;
25319;SDS011;13256;49.012;8.610;2022-10-30T14:03:02;7.05;;;3.10;;
25319;SDS011;13256;49.012;8.610;2022-10-30T14:05:35;10.45;;;3.05;;
25319;SDS011;13256;49.012;8.610;2022-10-30T14:08:21;10.25;;;2.80;;
25319;SDS011;13256;49.012;8.610;2022-10-30T14:11:01;7.65;;;2.40;;
25319;SDS011;13256;49.012;8.610;2022-10-30T14:16:05;6.55;;;2.90;;
25319;SDS011;13256;49.012;8.610;2022-10-30T14:18:42;6.30;;;2.80;;
25319;SDS011;13256;49.012;8.610;2022-10-30T14:24:10;9.15;;;2.72;;
25319;SDS011;13256;49.012;8.610;2022-10-30T14:26:48;7.10;;;3.45;;
25319;SDS011;13256;49.012;8.610;2022-10-30T14:31:59;8.90;;;3.10;;
25319;SDS011;13256;49.012;8.610;2022-10-30T14:37:12;8.65;;;3.20;;
25319;SDS011;13256;49.012;8.610;2022-10-30T14:39:43;7.47;;;3.38;;
25319;SDS011;13256;49.012;8.610;2022-10-30T14:50:56;8.27;;;3.38;;
25319;SDS011;13256;49.012;8.610;2022-10-30T14:58:45;7.80;;;2.97;;
25319;SDS011;13256;49.012;8.610;2022-10-30T15:10:16;5.18;;;2.90;;
25319;SDS011;13256;49.012;8.610;2022-10-30T15:13:03;6.83;;;3.20;;
25319;SDS011;13256;49.012;8.610;2022-10-30T15:16:11;11.27;;;3.55;;
25319;SDS011;13256;49.012;8.610;2022-10-30T15:18:45;10.38;;;3.45;;
25319;SDS011;13256;49.012;8.610;2022-10-30T15:21:19;6.05;;;3.42;;
25319;SDS011;13256;49.012;8.610;2022-10-30T15:23:50;8.13;;;3.42;;
25319;SDS011;13256;49.012;8.610;2022-10-30T15:26:22;9.10;;;3.10;;
25319;SDS011;13256;49.012;8.610;2022-10-30T15:29:00;11.35;;;3.38;;
25319;SDS011;13256;49.012;8.610;2022-10-30T15:31:28;8.18;;;3.88;;
25319;SDS011;13256;49.012;8.610;2022-10-30T15:33:58;11.15;;;3.17;;
25319;SDS011;13256;49.012;8.610;2022-10-30T15:36:33;6.47;;;3.22;;
25319;SDS011;13256;49.012;8.610;2022-10-30T15:39:10;6.85;;;2.78;;
25319;SDS011;13256;49.012;8.610;2022-10-30T15:41:56;6.80;;;3.28;;
25319;SDS011;13256;49.012;8.610;2022-10-30T15:44:26;9.02;;;3.15;;
25319;SDS011;13256;49.012;8.610;2022-10-30T15:47:00;8.27;;;3.63;;
25319;SDS011;13256;49.012;8.610;2022-10-30T15:49:38;10.27;;;3.10;;
25319;SDS011;13256;49.012;8.610;2022-10-30T15:52:14;9.65;;;3.30;;
25319;SDS011;13256;49.012;8.610;2022-10-30T15:54:42;6.28;;;3.05;;
25319;SDS011;13256;49.012;8.610;2022-10-30T15:57:15;6.50;;;2.95;;
25319;SDS011;13256;49.012;8.610;2022-10-30T16:00:21;8.27;;;3.92;;
25319;SDS011;13256;49.012;8.610;2022-10-30T16:02:58;8.85;;;6.03;;
25319;SDS011;13256;49.012;8.610;2022-10-30T16:05:33;10.85;;;6.20;;
25319;SDS011;13256;49.012;8.610;2022-10-30T16:08:01;12.20;;;5.15;;
25319;SDS011;13256;49.012;8.610;2022-10-30T16:10:33;12.93;;;5.00;;
25319;SDS011;13256;49.012;8.610;2022-10-30T16:13:00;6.83;;;4.00;;
25319;SDS011;13256;49.012;8.610;2022-10-30T16:15:30;10.00;;;4.57;;
25319;SDS011;13256;49.012;8.610;2022-10-30T16:18:09;12.75;;;4.47;;
25319;SDS011;13256;49.012;8.610;2022-10-30T16:20:47;8.90;;;4.35;;
25319;SDS011;13256;49.012;8.610;2022-10-30T16:23:16;13.00;;;6.20;;
25319;SDS011;13256;49.012;8.610;2022-10-30T16:34:34;8.05;;;4.07;;
25319;SDS011;13256;49.012;8.610;2022-10-30T16:37:03;12.40;;;4.63;;
25319;SDS011;13256;49.012;8.610;2022-10-30T16:39:33;12.68;;;4.32;;
25319;SDS011;13256;49.012;8.610;2022-10-30T16:42:02;7.90;;;4.25;;
25319;SDS011;13256;49.012;8.610;2022-10-30T16:44:33;6.80;;;4.07;;
25319;SDS011;13256;49.012;8.610;2022-10-30T16:49:45;7.10;;;3.67;;
25319;SDS011;13256;49.012;8.610;2022-10-30T16:52:16;11.32;;;3.88;;
25319;SDS011;13256;49.012;8.610;2022-10-30T16:57:35;9.85;;;4.47;;
25319;SDS011;13256;49.012;8.610;2022-10-30T17:00:17;10.57;;;5.03;;
25319;SDS011;13256;49.012;8.610;2022-10-30T17:02:56;10.27;;;5.20;;
25319;SDS011;13256;49.012;8.610;2022-10-30T17:05:35;18.73;;;7.07;;
25319;SDS011;13256;49.012;8.610;2022-10-30T17:08:03;12.20;;;6.40;;
25319;SDS011;13256;49.012;8.610;2022-10-30T17:10:35;13.43;;;6.07;;
25319;SDS011;13256;49.012;8.610;2022-10-30T17:15:57;13.82;;;5.20;;
25319;SDS011;13256;49.012;8.610;2022-10-30T17:18:53;7.55;;;4.78;;
25319;SDS011;13256;49.012;8.610;2022-10-30T17:21:40;18.42;;;6.15;;
25319;SDS011;13256;49.012;8.610;2022-10-30T17:24:17;10.10;;;5.22;;
25319;SDS011;13256;49.012;8.610;2022-10-30T17:26:56;14.48;;;4.80;;
25319;SDS011;13256;49.012;8.610;2022-10-30T17:35:16;5.03;;;3.25;;
25319;SDS011;13256;49.012;8.610;2022-10-30T17:37:44;9.38;;;4.05;;
25319;SDS011;13256;49.012;8.610;2022-10-30T17:40:13;11.02;;;4.25;;
25319;SDS011;13256;49.012;8.610;2022-10-30T17:42:43;11.35;;;4.95;;
25319;SDS011;13256;49.012;8.610;2022-10-30T17:45:23;9.05;;;5.75;;
25319;SDS011;13256;49.012;8.610;2022-10-30T17:47:52;12.38;;;6.35;;
25319;SDS011;13256;49.012;8.610;2022-10-30T17:50:19;18.02;;;8.40;;
25319;SDS011;13256;49.012;8.610;2022-10-30T17:52:48;18.10;;;6.95;;
25319;SDS011;13256;49.012;8.610;2022-10-30T17:55:24;9.25;;;5.97;;
25319;SDS011;13256;49.012;8.610;2022-10-30T18:00:50;12.55;;;6.72;;
25319;SDS011;13256;49.012;8.610;2022-10-30T18:03:17;14.65;;;6.80;;
25319;SDS011;13256;49.012;8.610;2022-10-30T18:05:44;16.05;;;6.68;;
25319;SDS011;13256;49.012;8.610;2022-10-30T18:08:11;13.40;;;6.85;;
25319;SDS011;13256;49.012;8.610;2022-10-30T18:10:41;19.13;;;9.82;;
25319;SDS011;13256;49.012;8.610;2022-10-30T18:13:13;20.42;;;8.60;;
25319;SDS011;13256;49.012;8.610;2022-10-30T18:15:41;21.40;;;8.38;;
25319;SDS011;13256;49.012;8.610;2022-10-30T18:18:16;12.95;;;7.57;;
25319;SDS011;13256;49.012;8.610;2022-10-30T18:20:43;22.33;;;8.52;;
25319;SDS011;13256;49.012;8.610;2022-10-30T18:23:16;13.15;;;6.47;;
25319;SDS011;13256;49.012;8.610;2022-10-30T18:26:11;12.35;;;5.90;;
25319;SDS011;13256;49.012;8.610;2022-10-30T18:28:50;12.05;;;5.97;;
25319;SDS011;13256;49.012;8.610;2022-10-30T18:31:18;11.35;;;5.65;;
25319;SDS011;13256;49.012;8.610;2022-10-30T18:33:48;14.95;;;5.63;;
25319;SDS011;13256;49.012;8.610;2022-10-30T18:36:23;16.52;;;6.97;;